Terminal Aerodrome Forecast
Issued by NWS Charleston, WV

Current Version | Previous Version | Text Only | Print | Product List | Glossary Off
Versions: 1 2 3 4 5 6 7 8 9 10 11 12 13 14 15 16 17 18 19 20 21

000
FTUS41 KRLX 271122
TAFBKW
TAF
KBKW 271122Z 2712/2812 17008KT 6SM SHRA BR SCT008 BKN035
      TEMPO 2712/2714 2SM SHRA BR SCT008 BKN025
     FM271400 19007KT 3SM SHRA BR OVC040
     FM271700 21007KT 3SM SHRA BR VCTS BKN070CB
     FM272100 23006KT P6SM SHRA VCTS BKN050CB
     FM272300 25005KT P6SM BKN050
     FM280600 VRB03KT P6SM BKN015=

USA.gov is the U.S. government's official web portal to all federal, state and local government web resources and services.